Time;durP1;ratioP1;P1;durP2;ratioP2;P2;SDS_P1;SDS_P2;PMS_P1;PMS_P2;Temp;Humidity;BMP_temperature;BMP_pressure;BME280_temperature;BME280_humidity;BME280_pressure;Samples;Min_cycle;Max_cycle;Signal;HPM_P1;HPM_P2
2022/04/05 00:00:28;;;;;;;8.35;1.83;;;6.80;99.90;;;;;;5105835;27;20034;-87
2022/04/05 00:02:55;;;;;;;7.47;1.60;;;6.80;99.90;;;;;;5127943;27;20042;-87
2022/04/05 00:05:21;;;;;;;7.50;1.40;;;6.80;99.90;;;;;;5111381;27;20035;-88
2022/04/05 00:07:46;;;;;;;9.02;2.00;;;6.80;99.90;;;;;;5104081;28;20421;-88
2022/04/05 00:10:12;;;;;;;9.27;1.40;;;6.80;99.90;;;;;;5122602;27;20078;-87
2022/04/05 00:12:38;;;;;;;10.20;1.50;;;6.80;99.90;;;;;;5114470;27;20045;-88
2022/04/05 00:15:05;;;;;;;12.80;1.52;;;6.80;99.90;;;;;;5110487;27;20396;-88
2022/04/05 00:17:32;;;;;;;9.57;1.98;;;6.80;99.90;;;;;;5112933;27;20383;-88
2022/04/05 00:19:58;;;;;;;7.88;1.40;;;6.80;99.90;;;;;;5131174;27;20042;-88
2022/04/05 00:22:23;;;;;;;13.55;2.45;;;6.80;99.90;;;;;;5133817;27;20030;-88
2022/04/05 00:24:50;;;;;;;7.07;1.63;;;6.80;99.90;;;;;;5113139;27;20513;-87
2022/04/05 00:27:16;;;;;;;8.55;1.55;;;6.80;99.90;;;;;;5107404;28;20172;-88
2022/04/05 00:29:41;;;;;;;8.63;1.48;;;6.80;99.90;;;;;;5121585;28;20491;-89
2022/04/05 00:32:08;;;;;;;6.40;1.33;;;6.80;99.90;;;;;;5101629;27;21903;-87
2022/04/05 00:34:34;;;;;;;7.85;1.73;;;6.80;99.90;;;;;;5111932;27;20034;-88
2022/04/05 00:37:00;;;;;;;8.68;1.83;;;6.80;99.90;;;;;;5117975;27;20088;-88
2022/04/05 00:39:26;;;;;;;6.47;1.23;;;6.80;99.90;;;;;;5101208;28;20035;-88
2022/04/05 00:41:53;;;;;;;13.02;1.90;;;6.80;99.90;;;;;;5101331;27;20031;-88
2022/04/05 00:44:19;;;;;;;9.38;1.38;;;6.80;99.90;;;;;;5103835;27;20047;-88
2022/04/05 00:46:45;;;;;;;9.73;1.48;;;6.70;99.90;;;;;;5110225;27;20039;-89
2022/04/05 00:49:16;;;;;;;10.05;1.50;;;6.70;99.90;;;;;;5113272;27;20118;-88
2022/04/05 00:51:42;;;;;;;8.50;1.27;;;6.70;99.90;;;;;;5128206;27;20043;-87
2022/04/05 00:54:10;;;;;;;7.07;1.17;;;6.70;99.90;;;;;;5112767;27;20485;-88
2022/04/05 00:56:36;;;;;;;9.40;1.67;;;6.70;99.90;;;;;;5130067;27;20065;-87
2022/04/05 00:59:03;;;;;;;11.52;1.95;;;6.70;99.90;;;;;;5109231;27;20031;-88
2022/04/05 01:01:30;;;;;;;7.22;1.73;;;6.70;99.90;;;;;;5119791;27;20078;-87
2022/04/05 01:03:56;;;;;;;10.10;1.90;;;6.70;99.90;;;;;;5128309;27;20114;-87
2022/04/05 01:06:33;;;;;;;7.88;1.38;;;6.70;99.90;;;;;;5118811;27;20514;-88
2022/04/05 01:08:59;;;;;;;7.35;1.42;;;6.70;99.90;;;;;;5131311;27;20038;-88
2022/04/05 01:11:39;;;;;;;8.55;1.85;;;6.70;99.90;;;;;;5121155;27;20031;-89
2022/04/05 01:14:05;;;;;;;10.00;1.75;;;6.70;99.90;;;;;;5119525;27;20042;-89
2022/04/05 01:16:31;;;;;;;10.05;2.13;;;6.60;99.90;;;;;;5125965;27;20031;-88
2022/04/05 01:18:57;;;;;;;8.52;1.50;;;6.70;99.90;;;;;;5132168;27;20122;-88
2022/04/05 01:21:23;;;;;;;10.35;1.45;;;6.60;99.90;;;;;;5132797;27;20108;-88
2022/04/05 01:24:07;;;;;;;8.65;1.73;;;6.60;99.90;;;;;;5120493;27;20035;-88
2022/04/05 01:26:43;;;;;;;8.68;1.58;;;6.70;99.90;;;;;;5113098;27;20422;-88
2022/04/05 01:29:11;;;;;;;10.10;1.65;;;6.70;99.90;;;;;;5102645;27;20026;-88
2022/04/05 01:31:44;;;;;;;9.35;1.60;;;6.60;99.90;;;;;;5124699;27;20035;-88
2022/04/05 01:34:15;;;;;;;9.55;1.95;;;6.70;99.90;;;;;;5135385;27;20122;-88
2022/04/05 01:36:43;;;;;;;8.15;1.55;;;6.70;99.90;;;;;;5110674;27;20508;-88
2022/04/05 01:39:13;;;;;;;12.27;1.67;;;6.70;99.90;;;;;;5117157;27;20031;-88
2022/04/05 01:41:39;;;;;;;12.55;1.50;;;6.70;99.90;;;;;;5121704;27;20054;-87
2022/04/05 01:44:06;;;;;;;13.25;1.98;;;6.70;99.90;;;;;;5099560;27;20066;-87
2022/04/05 01:46:32;;;;;;;9.60;1.52;;;6.70;99.90;;;;;;5113011;27;20034;-88
2022/04/05 01:48:58;;;;;;;10.48;1.70;;;6.70;99.90;;;;;;5119610;27;20815;-88
2022/04/05 01:51:23;;;;;;;12.93;2.00;;;6.70;99.90;;;;;;5117751;27;20046;-88
2022/04/05 01:53:49;;;;;;;13.55;2.97;;;6.70;99.90;;;;;;5101182;27;20085;-88
2022/04/05 01:56:15;;;;;;;8.48;2.28;;;6.70;99.90;;;;;;5124326;27;20094;-88
2022/04/05 01:58:40;;;;;;;10.57;1.80;;;6.60;99.90;;;;;;5132079;27;20046;-88
2022/04/05 02:01:06;;;;;;;9.02;2.13;;;6.60;99.90;;;;;;5121121;27;20042;-88
2022/04/05 02:03:32;;;;;;;12.00;2.50;;;6.60;99.90;;;;;;5120087;27;20084;-87
2022/04/05 02:05:57;;;;;;;11.32;2.30;;;6.60;99.90;;;;;;5118612;27;20053;-88
2022/04/05 02:08:23;;;;;;;10.32;2.20;;;6.60;99.90;;;;;;5130939;27;20039;-88
2022/04/05 02:10:49;;;;;;;13.00;1.90;;;6.60;99.90;;;;;;5114684;27;20039;-88
2022/04/05 02:13:14;;;;;;;11.30;2.45;;;6.60;99.90;;;;;;5105640;27;20031;-88
2022/04/05 02:15:40;;;;;;;11.35;2.85;;;6.60;99.90;;;;;;5099206;27;20031;-88
2022/04/05 02:18:06;;;;;;;11.43;2.58;;;6.60;99.90;;;;;;5104633;27;20039;-88
2022/04/05 02:20:32;;;;;;;13.85;2.20;;;6.60;99.90;;;;;;5115758;27;20138;-88
2022/04/05 02:22:58;;;;;;;17.80;2.38;;;6.60;99.90;;;;;;5109489;27;20041;-88
2022/04/05 02:25:24;;;;;;;14.48;2.80;;;6.60;99.90;;;;;;5135883;27;20118;-89
2022/04/05 02:27:49;;;;;;;15.25;2.20;;;6.60;99.90;;;;;;5125727;27;20500;-87
2022/04/05 02:30:15;;;;;;;13.85;3.03;;;6.60;99.90;;;;;;5110972;27;20292;-87
2022/04/05 02:32:41;;;;;;;17.40;2.78;;;6.60;99.90;;;;;;5112939;27;20031;-88
2022/04/05 02:35:08;;;;;;;14.75;2.72;;;6.60;99.90;;;;;;5115759;27;20046;-88
2022/04/05 02:37:34;;;;;;;16.17;3.00;;;6.60;99.90;;;;;;5112777;27;20508;-88
2022/04/05 02:39:59;;;;;;;18.70;2.85;;;6.60;99.90;;;;;;5116241;27;20080;-88
2022/04/05 02:42:25;;;;;;;10.27;2.50;;;6.60;99.90;;;;;;5133350;27;20039;-88
2022/04/05 02:44:50;;;;;;;16.25;2.67;;;6.60;99.90;;;;;;5106722;27;20047;-89
2022/04/05 02:47:17;;;;;;;18.92;2.40;;;6.60;99.90;;;;;;5113159;27;20042;-89
2022/04/05 02:49:43;;;;;;;21.17;3.10;;;6.60;99.90;;;;;;5118764;27;20415;-88
2022/04/05 02:52:08;;;;;;;17.48;3.05;;;6.60;99.90;;;;;;5118425;27;20121;-88
2022/04/05 02:54:34;;;;;;;17.25;2.53;;;6.60;99.90;;;;;;5111164;27;20043;-88
2022/04/05 02:56:59;;;;;;;16.25;2.45;;;6.60;99.90;;;;;;5098576;27;20039;-88
2022/04/05 02:59:25;;;;;;;11.90;2.45;;;6.60;99.90;;;;;;5104436;27;20038;-89
2022/04/05 03:01:51;;;;;;;14.15;2.25;;;6.60;99.90;;;;;;5126769;27;20039;-88
2022/04/05 03:04:16;;;;;;;16.83;2.70;;;6.60;99.90;;;;;;5098511;27;20038;-88
2022/04/05 03:06:42;;;;;;;12.98;2.33;;;6.60;99.90;;;;;;5133219;27;20125;-89
2022/04/05 03:09:07;;;;;;;17.48;2.38;;;6.50;99.90;;;;;;5111647;27;20031;-88
2022/04/05 03:11:33;;;;;;;17.98;2.63;;;6.60;99.90;;;;;;5105311;27;20034;-89
2022/04/05 03:13:59;;;;;;;18.88;2.13;;;6.50;99.90;;;;;;5118427;27;20133;-88
2022/04/05 03:16:24;;;;;;;20.73;2.90;;;7.10;99.90;;;;;;5103962;27;20043;-89
2022/04/05 03:18:51;;;;;;;17.90;2.25;;;6.50;99.90;;;;;;5128798;27;20035;-88
2022/04/05 03:21:17;;;;;;;17.77;2.65;;;6.50;99.90;;;;;;5117448;27;20053;-89
2022/04/05 03:23:42;;;;;;;19.75;3.15;;;6.50;99.90;;;;;;5101027;27;20083;-89
2022/04/05 03:26:08;;;;;;;16.83;2.83;;;7.00;99.90;;;;;;5102223;27;20043;-88
2022/04/05 03:28:34;;;;;;;20.25;3.50;;;6.50;99.90;;;;;;5097755;27;20091;-87
2022/04/05 03:31:00;;;;;;;20.50;3.58;;;6.50;99.90;;;;;;5104881;27;20466;-88
2022/04/05 03:33:25;;;;;;;16.25;2.38;;;6.50;99.90;;;;;;5107398;27;20049;-88
2022/04/05 03:35:54;;;;;;;17.95;2.97;;;6.50;99.90;;;;;;5114666;27;20042;-87
2022/04/05 03:38:19;;;;;;;16.25;3.30;;;6.50;99.90;;;;;;5126997;27;20399;-88
2022/04/05 03:40:46;;;;;;;19.70;2.85;;;6.40;99.90;;;;;;5115918;27;20118;-88
2022/04/05 03:43:12;;;;;;;24.60;5.22;;;6.50;99.90;;;;;;5121978;27;20095;-87
2022/04/05 03:45:38;;;;;;;17.77;2.63;;;6.50;99.90;;;;;;5097102;27;20046;-87
2022/04/05 03:48:04;;;;;;;21.05;3.67;;;6.40;99.90;;;;;;5114350;27;20121;-88
2022/04/05 03:50:31;;;;;;;16.33;2.45;;;6.40;99.90;;;;;;5129332;27;20118;-88
2022/04/05 03:52:59;;;;;;;22.38;2.55;;;6.40;99.90;;;;;;5134473;27;20420;-89
2022/04/05 03:55:25;;;;;;;18.02;2.75;;;6.50;99.90;;;;;;5101346;28;20039;-88
2022/04/05 03:57:51;;;;;;;19.00;2.88;;;6.40;99.90;;;;;;5112482;27;20034;-88
2022/04/05 04:00:17;;;;;;;21.48;2.25;;;6.40;99.90;;;;;;5134912;27;20034;-88
2022/04/05 04:02:42;;;;;;;16.52;2.30;;;6.60;99.90;;;;;;5111416;27;20038;-88
2022/04/05 04:05:08;;;;;;;14.50;2.53;;;6.40;99.90;;;;;;5130071;27;20544;-88
2022/04/05 04:07:38;;;;;;;17.13;2.50;;;6.40;99.90;;;;;;5108858;27;20035;-88
2022/04/05 04:10:04;;;;;;;16.77;3.53;;;6.40;99.90;;;;;;5114492;28;20036;-88
2022/04/05 04:12:31;;;;;;;18.63;3.50;;;6.40;99.90;;;;;;5124418;27;20151;-88
2022/04/05 04:14:57;;;;;;;16.52;2.90;;;6.40;99.90;;;;;;5120830;27;20087;-88
2022/04/05 04:17:23;;;;;;;11.40;2.30;;;6.30;99.90;;;;;;5110838;27;20027;-88
2022/04/05 04:19:48;;;;;;;25.55;3.03;;;6.30;99.90;;;;;;5117145;27;20484;-88
2022/04/05 04:22:14;;;;;;;11.63;2.25;;;6.30;99.90;;;;;;5096999;27;20032;-88
2022/04/05 04:24:40;;;;;;;27.20;3.47;;;6.30;99.90;;;;;;5117295;27;20495;-88
2022/04/05 04:27:06;;;;;;;15.30;2.60;;;6.30;99.90;;;;;;5104771;28;20067;-88
2022/04/05 04:29:32;;;;;;;22.65;2.40;;;6.30;99.90;;;;;;5110926;27;20042;-88
2022/04/05 04:31:57;;;;;;;15.45;2.40;;;6.30;99.90;;;;;;5114275;27;20038;-88
2022/04/05 04:34:23;;;;;;;17.45;2.40;;;6.30;99.90;;;;;;5128545;27;20081;-88
2022/04/05 04:36:49;;;;;;;16.58;2.70;;;6.30;99.90;;;;;;5120336;27;20040;-87
2022/04/05 04:39:17;;;;;;;17.17;2.78;;;6.30;99.90;;;;;;5102329;27;20039;-88
2022/04/05 04:41:43;;;;;;;18.65;2.75;;;6.30;99.90;;;;;;5101393;27;20038;-88
2022/04/05 04:44:10;;;;;;;13.88;2.42;;;6.30;99.90;;;;;;5102092;27;20035;-87
2022/04/05 04:46:35;;;;;;;17.27;2.58;;;6.30;99.90;;;;;;5114764;27;20066;-88
2022/04/05 04:49:01;;;;;;;20.98;3.10;;;6.30;99.90;;;;;;5109574;27;20096;-88
2022/04/05 04:51:26;;;;;;;13.13;1.92;;;6.20;99.90;;;;;;5100618;27;20092;-88
2022/04/05 04:53:52;;;;;;;15.90;2.30;;;6.20;99.90;;;;;;5104673;27;20042;-88
2022/04/05 04:56:17;;;;;;;18.75;2.90;;;6.20;99.90;;;;;;5137561;27;20038;-87
2022/04/05 04:58:44;;;;;;;13.98;2.78;;;6.20;99.90;;;;;;5120297;27;20027;-89
2022/04/05 05:01:09;;;;;;;13.75;2.58;;;6.20;99.90;;;;;;5106563;27;20079;-88
2022/04/05 05:03:35;;;;;;;19.05;2.20;;;6.20;99.90;;;;;;5128792;27;20035;-88
2022/04/05 05:06:01;;;;;;;17.95;2.38;;;6.10;99.90;;;;;;5101322;27;20041;-89
2022/04/05 05:08:26;;;;;;;16.60;2.80;;;6.10;99.90;;;;;;5132168;27;20035;-87
2022/04/05 05:10:52;;;;;;;14.38;2.63;;;6.10;99.90;;;;;;5113083;27;20031;-88
2022/04/05 05:13:18;;;;;;;17.48;2.60;;;6.10;99.90;;;;;;5129193;27;20080;-89
2022/04/05 05:15:44;;;;;;;12.50;2.15;;;6.10;99.90;;;;;;5116729;27;20039;-88
2022/04/05 05:18:09;;;;;;;17.33;3.72;;;6.10;99.90;;;;;;5119613;27;20035;-88
2022/04/05 05:20:35;;;;;;;14.13;2.03;;;6.20;99.90;;;;;;5106175;27;20042;-87
2022/04/05 05:23:01;;;;;;;15.88;3.00;;;6.80;99.90;;;;;;5100002;27;20369;-88
2022/04/05 05:25:27;;;;;;;12.77;2.47;;;6.10;99.90;;;;;;5101253;27;20047;-87
2022/04/05 05:27:52;;;;;;;16.25;2.70;;;6.20;99.90;;;;;;5104153;27;20041;-88
2022/04/05 05:30:18;;;;;;;13.68;2.15;;;6.20;99.90;;;;;;5117445;27;20411;-88
2022/04/05 05:32:45;;;;;;;15.50;2.38;;;6.20;99.90;;;;;;5100536;27;20130;-88
2022/04/05 05:35:14;;;;;;;19.15;2.90;;;6.20;99.90;;;;;;5100980;27;20039;-88
2022/04/05 05:37:39;;;;;;;18.60;2.92;;;6.20;99.90;;;;;;5137287;27;20103;-88
2022/04/05 05:40:06;;;;;;;17.17;3.05;;;6.20;99.90;;;;;;5129769;27;20043;-88
2022/04/05 05:42:32;;;;;;;13.43;2.53;;;6.20;99.90;;;;;;5102719;27;20038;-88
2022/04/05 05:44:57;;;;;;;13.18;3.05;;;6.20;99.90;;;;;;5106447;27;20043;-88
2022/04/05 05:47:23;;;;;;;12.05;3.05;;;6.30;99.90;;;;;;5135378;27;20050;-88
2022/04/05 05:49:48;;;;;;;16.95;3.50;;;6.40;99.90;;;;;;5102729;27;20548;-88
2022/04/05 05:52:14;;;;;;;17.38;3.83;;;6.40;99.90;;;;;;5104998;27;20031;-88
2022/04/05 05:54:39;;;;;;;18.58;3.28;;;6.40;99.90;;;;;;5117055;27;20125;-87
2022/04/05 05:57:05;;;;;;;15.45;3.15;;;6.40;99.90;;;;;;5115974;27;20091;-87
2022/04/05 05:59:31;;;;;;;14.00;2.95;;;6.40;99.90;;;;;;5101982;27;20045;-88
2022/04/05 06:01:56;;;;;;;16.10;2.70;;;6.50;99.90;;;;;;5114781;27;20027;-87
2022/04/05 06:04:22;;;;;;;14.63;2.63;;;6.50;99.90;;;;;;5128924;27;20136;-86
2022/04/05 06:06:47;;;;;;;17.02;3.20;;;6.50;99.90;;;;;;5130644;27;20118;-88
2022/04/05 06:09:13;;;;;;;20.20;3.42;;;6.50;99.90;;;;;;5119260;27;20070;-88
2022/04/05 06:11:38;;;;;;;15.02;3.08;;;6.50;99.90;;;;;;5125327;27;20057;-88
2022/04/05 06:14:04;;;;;;;12.57;3.47;;;6.60;99.90;;;;;;5113139;27;20035;-88
2022/04/05 06:16:30;;;;;;;22.77;2.80;;;6.60;99.90;;;;;;5129268;27;20418;-87
2022/04/05 06:18:55;;;;;;;15.23;2.67;;;6.60;99.90;;;;;;5098838;27;20035;-88
2022/04/05 06:21:21;;;;;;;10.88;2.33;;;6.70;99.90;;;;;;5117837;27;20035;-89
2022/04/05 06:23:47;;;;;;;14.85;2.60;;;6.70;99.90;;;;;;5114827;27;20041;-88
2022/04/05 06:26:12;;;;;;;16.08;2.45;;;6.70;99.90;;;;;;5116493;27;20035;-88
2022/04/05 06:28:38;;;;;;;17.48;3.20;;;6.70;99.90;;;;;;5108587;27;20038;-88
2022/04/05 06:31:04;;;;;;;13.18;2.53;;;6.80;99.90;;;;;;5126385;27;20543;-88
2022/04/05 06:33:30;;;;;;;16.58;2.50;;;6.80;99.90;;;;;;5100288;27;20035;-88
2022/04/05 06:35:59;;;;;;;16.60;2.65;;;6.90;99.90;;;;;;5098533;27;20062;-88
2022/04/05 06:38:26;;;;;;;15.75;2.70;;;6.90;99.90;;;;;;5115755;27;20039;-88
2022/04/05 06:40:54;;;;;;;19.70;4.93;;;6.90;99.90;;;;;;5124008;27;20117;-89
2022/04/05 06:43:21;;;;;;;21.27;6.13;;;6.90;99.90;;;;;;5124283;27;20500;-88
2022/04/05 06:45:47;;;;;;;17.83;3.58;;;7.00;99.90;;;;;;5115574;27;20045;-89
2022/04/05 06:48:13;;;;;;;13.85;3.65;;;7.00;99.90;;;;;;5119050;27;20039;-89
2022/04/05 06:50:39;;;;;;;14.82;3.22;;;7.10;99.90;;;;;;5136370;27;20039;-88
2022/04/05 06:53:07;;;;;;;14.30;3.65;;;7.10;99.90;;;;;;5119400;27;20122;-88
2022/04/05 06:55:34;;;;;;;11.90;3.17;;;7.20;99.90;;;;;;5129928;27;20044;-89
2022/04/05 06:57:59;;;;;;;11.32;3.97;;;7.30;99.90;;;;;;5118850;27;20030;-88
2022/04/05 07:00:26;;;;;;;12.18;3.70;;;7.30;99.90;;;;;;5117970;27;20041;-88
2022/04/05 07:02:53;;;;;;;12.35;2.63;;;7.40;99.90;;;;;;5103660;27;20043;-88
2022/04/05 07:05:19;;;;;;;10.32;2.90;;;7.40;99.90;;;;;;5107209;27;20596;-88
2022/04/05 07:07:45;;;;;;;11.23;2.70;;;7.40;99.90;;;;;;5105528;27;20431;-88
2022/04/05 07:10:14;;;;;;;10.65;2.78;;;7.40;99.90;;;;;;5110682;27;20083;-88
2022/04/05 07:12:41;;;;;;;10.80;2.60;;;7.40;99.90;;;;;;5114197;27;20070;-88
2022/04/05 07:15:07;;;;;;;11.93;2.40;;;7.40;99.90;;;;;;5105392;27;20043;-87
2022/04/05 07:17:33;;;;;;;9.75;2.92;;;7.40;99.90;;;;;;5110825;27;20027;-87
2022/04/05 07:19:59;;;;;;;14.55;3.03;;;7.40;99.90;;;;;;5103384;27;20076;-88
2022/04/05 07:22:26;;;;;;;10.40;2.47;;;7.30;99.90;;;;;;5102007;27;20035;-88
2022/04/05 07:24:52;;;;;;;10.75;3.22;;;7.40;99.90;;;;;;5106766;27;20039;-88
2022/04/05 07:27:17;;;;;;;9.15;2.72;;;7.40;99.90;;;;;;5103126;27;20087;-88
2022/04/05 07:29:43;;;;;;;7.68;2.40;;;7.40;99.90;;;;;;5107684;27;20121;-88
2022/04/05 07:32:08;;;;;;;10.57;2.35;;;7.40;99.90;;;;;;5114377;27;20035;-87
2022/04/05 07:34:34;;;;;;;12.88;3.05;;;7.30;99.90;;;;;;5107449;27;20528;-88
2022/04/05 07:37:00;;;;;;;9.32;2.63;;;7.30;99.90;;;;;;5117737;27;20035;-87
2022/04/05 07:39:25;;;;;;;13.93;2.50;;;7.30;99.90;;;;;;5114068;27;20037;-88
2022/04/05 07:41:52;;;;;;;14.73;3.03;;;7.30;99.90;;;;;;5110224;27;20031;-88
2022/04/05 07:44:18;;;;;;;10.80;2.72;;;7.40;99.90;;;;;;5130002;27;20045;-88
2022/04/05 07:46:45;;;;;;;11.82;3.10;;;7.40;99.90;;;;;;5133534;27;20869;-88
2022/04/05 07:49:10;;;;;;;9.95;3.20;;;7.30;99.90;;;;;;5111168;27;20125;-89
2022/04/05 07:51:36;;;;;;;7.38;3.03;;;7.30;99.90;;;;;;5129691;27;20126;-87
2022/04/05 07:54:02;;;;;;;11.07;3.55;;;7.30;99.90;;;;;;5100586;27;20661;-88
2022/04/05 07:56:27;;;;;;;10.73;3.17;;;7.30;99.90;;;;;;5129479;27;20041;-88
2022/04/05 07:58:53;;;;;;;11.02;3.25;;;7.30;99.90;;;;;;5100426;27;20035;-88
2022/04/05 08:01:18;;;;;;;9.90;3.40;;;7.30;99.90;;;;;;5133485;27;20437;-88
2022/04/05 08:03:44;;;;;;;8.35;3.33;;;7.40;99.90;;;;;;5116328;27;20463;-88
2022/04/05 08:06:10;;;;;;;11.30;3.35;;;7.40;99.90;;;;;;5120290;27;20033;-87
2022/04/05 08:08:35;;;;;;;9.80;2.83;;;7.50;99.90;;;;;;5116587;27;20043;-88
2022/04/05 08:11:01;;;;;;;10.50;2.78;;;7.50;99.90;;;;;;5115688;27;20087;-88
2022/04/05 08:13:26;;;;;;;12.43;4.18;;;7.50;99.90;;;;;;5138990;27;20046;-87
2022/04/05 08:15:53;;;;;;;19.20;3.83;;;7.50;99.90;;;;;;5120883;27;20054;-88
2022/04/05 08:18:19;;;;;;;8.30;2.40;;;7.60;99.90;;;;;;5115169;27;20070;-87
2022/04/05 08:20:45;;;;;;;12.43;3.30;;;7.60;99.90;;;;;;5130754;27;20042;-87
2022/04/05 08:23:11;;;;;;;9.48;2.72;;;7.70;99.90;;;;;;5124176;27;20039;-87
2022/04/05 08:25:37;;;;;;;9.23;2.85;;;7.80;99.90;;;;;;5136217;27;20039;-87
2022/04/05 08:28:04;;;;;;;10.20;2.53;;;7.80;99.90;;;;;;5120701;27;20083;-88
2022/04/05 08:30:30;;;;;;;6.43;2.70;;;7.90;99.90;;;;;;5137080;27;20039;-88
2022/04/05 08:32:56;;;;;;;8.82;2.80;;;7.90;99.90;;;;;;5120966;27;20039;-87
2022/04/05 08:35:23;;;;;;;10.30;3.05;;;8.00;99.90;;;;;;5137648;27;20099;-88
2022/04/05 08:37:52;;;;;;;6.53;2.28;;;8.00;99.90;;;;;;5117826;27;20042;-88
2022/04/05 08:40:20;;;;;;;9.30;2.05;;;8.10;99.90;;;;;;5118533;27;20030;-87
2022/04/05 08:42:49;;;;;;;6.85;2.08;;;8.10;99.90;;;;;;5136312;27;20037;-88
2022/04/05 08:45:16;;;;;;;7.38;2.30;;;8.20;99.90;;;;;;5104359;27;20050;-87
2022/04/05 08:47:49;;;;;;;10.90;2.45;;;8.20;99.90;;;;;;5099619;27;20389;-87
2022/04/05 08:50:17;;;;;;;8.65;2.35;;;8.30;99.90;;;;;;5116816;27;20039;-87
2022/04/05 08:52:46;;;;;;;9.32;2.22;;;8.30;99.90;;;;;;5100659;27;20035;-88
2022/04/05 08:55:13;;;;;;;5.13;1.92;;;8.30;99.90;;;;;;5117184;27;20031;-88
2022/04/05 08:57:40;;;;;;;5.97;1.98;;;8.30;99.90;;;;;;5120522;27;20507;-88
2022/04/05 09:00:08;;;;;;;7.45;2.08;;;8.30;99.90;;;;;;5120678;27;20539;-87
2022/04/05 09:02:34;;;;;;;5.25;1.80;;;8.30;99.90;;;;;;5137617;27;20035;-87
2022/04/05 09:05:00;;;;;;;5.43;1.70;;;8.40;99.90;;;;;;5120580;27;20399;-87
2022/04/05 09:07:30;;;;;;;6.63;1.90;;;8.40;99.90;;;;;;5120650;27;20038;-87
2022/04/05 09:10:09;;;;;;;4.28;1.50;;;8.40;99.90;;;;;;5129422;27;20450;-87
2022/04/05 09:12:40;;;;;;;8.73;1.90;;;8.50;99.90;;;;;;5108766;27;20035;-87
2022/04/05 09:15:20;;;;;;;7.47;1.95;;;8.50;99.90;;;;;;5109727;27;20512;-87
2022/04/05 09:17:47;;;;;;;5.50;1.55;;;8.50;99.90;;;;;;5135405;27;20038;-88
2022/04/05 09:20:14;;;;;;;7.25;1.77;;;8.50;99.90;;;;;;5120299;27;20087;-87
2022/04/05 09:22:41;;;;;;;7.28;1.95;;;8.50;99.90;;;;;;5119192;27;20035;-87
2022/04/05 09:25:10;;;;;;;8.75;1.90;;;8.50;99.90;;;;;;5120279;27;20030;-87
2022/04/05 09:27:54;;;;;;;7.32;1.60;;;8.50;99.90;;;;;;5136400;27;20034;-88
2022/04/05 09:30:27;;;;;;;8.70;1.85;;;8.50;99.90;;;;;;5131154;27;20517;-87
2022/04/05 09:32:53;;;;;;;3.78;1.70;;;8.50;99.90;;;;;;5120139;27;20046;-87
2022/04/05 09:35:21;;;;;;;7.10;2.10;;;8.50;99.90;;;;;;5137217;27;20039;-87
2022/04/05 09:37:48;;;;;;;7.20;1.75;;;8.80;99.90;;;;;;5136474;27;20121;-86
2022/04/05 09:40:32;;;;;;;4.97;1.52;;;8.50;99.90;;;;;;5136051;27;20615;-87
2022/04/05 09:43:02;;;;;;;;;;;8.50;99.90;;;;;;5118778;27;20078;-86
2022/04/05 09:45:46;;;;;;;8.02;1.92;;;8.50;99.90;;;;;;5135422;27;19919;-86
2022/04/05 09:48:12;;;;;;;;;;;8.40;99.90;;;;;;5118880;27;20068;-87
2022/04/05 09:51:02;;;;;;;6.22;2.20;;;8.30;99.90;;;;;;5114285;27;19919;-87
2022/04/05 09:53:39;;;;;;;4.72;2.00;;;8.40;99.90;;;;;;5119188;27;20042;-86
2022/04/05 09:56:08;;;;;;;6.32;2.22;;;8.40;99.90;;;;;;5136675;27;20070;-86
2022/04/05 09:58:34;;;;;;;4.57;1.92;;;8.20;99.90;;;;;;5136555;27;20052;-86
2022/04/05 10:01:06;;;;;;;3.85;1.92;;;8.20;99.90;;;;;;5136896;27;20042;-86
2022/04/05 10:03:32;;;;;;;6.50;2.20;;;8.20;99.90;;;;;;5136804;27;20035;-86
2022/04/05 10:05:57;;;;;;;5.57;2.20;;;8.20;99.90;;;;;;5136074;27;20053;-85
2022/04/05 10:08:23;;;;;;;5.25;2.25;;;8.10;99.90;;;;;;5136508;27;20046;-85
2022/04/05 10:10:49;;;;;;;5.70;2.40;;;8.00;99.90;;;;;;5119433;27;20035;-85
2022/04/05 10:13:15;;;;;;;6.72;3.03;;;8.00;99.90;;;;;;5119280;27;20511;-86
2022/04/05 10:15:47;;;;;;;5.28;2.05;;;7.90;99.90;;;;;;5136233;27;20042;-86
2022/04/05 10:18:15;;;;;;;7.47;2.30;;;8.00;99.90;;;;;;5119007;27;20031;-86
2022/04/05 10:20:41;;;;;;;4.60;2.20;;;8.10;99.90;;;;;;5119267;27;20026;-85
2022/04/05 10:23:08;;;;;;;5.38;2.17;;;8.20;99.90;;;;;;5119088;27;20084;-86
2022/04/05 10:25:35;;;;;;;3.15;1.70;;;8.20;99.90;;;;;;5135905;27;20140;-87
2022/04/05 10:28:01;;;;;;;5.00;2.00;;;8.20;99.90;;;;;;5118036;27;20411;-86
2022/04/05 10:30:36;;;;;;;4.38;2.05;;;8.30;99.90;;;;;;5136275;27;20059;-86
2022/04/05 10:33:19;;;;;;;4.13;2.10;;;8.50;99.90;;;;;;5134398;27;20084;-87
2022/04/05 10:35:53;;;;;;;2.05;1.45;;;8.60;99.90;;;;;;5118000;27;20070;-87
2022/04/05 10:38:20;;;;;;;2.45;1.60;;;8.80;99.90;;;;;;5136037;27;20035;-86
2022/04/05 10:41:16;;;;;;;4.25;2.42;;;8.80;99.90;;;;;;5135683;27;20031;-87
2022/04/05 10:43:43;;;;;;;1.98;1.40;;;9.00;99.90;;;;;;5135800;27;20070;-87
2022/04/05 10:46:09;;;;;;;3.58;1.88;;;9.10;99.90;;;;;;5118749;27;20034;-87
2022/04/05 10:48:35;;;;;;;1.60;1.20;;;9.20;99.90;;;;;;5135917;27;20162;-86
2022/04/05 10:51:01;;;;;;;2.03;1.30;;;9.20;99.90;;;;;;5135560;27;20523;-86
2022/04/05 10:53:38;;;;;;;1.90;1.42;;;9.20;99.90;;;;;;5118907;27;20049;-86
2022/04/05 10:56:04;;;;;;;3.38;1.50;;;9.10;99.90;;;;;;5134699;27;20058;-86
2022/04/05 10:58:30;;;;;;;3.08;1.40;;;9.20;99.90;;;;;;5136737;27;20399;-86
2022/04/05 11:01:16;;;;;;;2.55;1.50;;;9.30;99.90;;;;;;5118697;27;20053;-86
2022/04/05 11:03:44;;;;;;;2.78;1.30;;;9.40;99.90;;;;;;5135298;27;20050;-86
2022/04/05 11:06:10;;;;;;;1.80;1.40;;;9.40;99.90;;;;;;5134814;27;20431;-86
2022/04/05 11:08:36;;;;;;;2.65;1.40;;;9.50;99.90;;;;;;5118063;27;20049;-86
2022/04/05 11:11:05;;;;;;;2.20;1.30;;;9.40;99.90;;;;;;5117756;27;20038;-86
2022/04/05 11:13:31;;;;;;;2.95;1.10;;;9.40;99.90;;;;;;5117411;27;20054;-87
2022/04/05 11:15:57;;;;;;;2.42;1.25;;;9.40;99.90;;;;;;5117812;27;20408;-86
2022/04/05 11:18:29;;;;;;;2.25;1.50;;;9.30;99.90;;;;;;5118187;27;20035;-85
2022/04/05 11:20:59;;;;;;;5.38;2.65;;;9.40;99.90;;;;;;5118163;27;20026;-86
2022/04/05 11:23:47;;;;;;;1.85;1.30;;;9.50;99.90;;;;;;5117962;27;20095;-86
2022/04/05 11:26:33;;;;;;;2.47;1.40;;;9.50;99.90;;;;;;5118027;27;20126;-86
2022/04/05 11:28:59;;;;;;;2.20;1.23;;;9.60;99.90;;;;;;5135075;27;20045;-86
2022/04/05 11:31:39;;;;;;;2.00;1.40;;;9.60;99.90;;;;;;5117903;27;20045;-85
2022/04/05 11:34:34;;;;;;;1.48;1.25;;;9.70;99.90;;;;;;5117516;27;20043;-86
2022/04/05 11:37:00;;;;;;;3.13;1.77;;;9.70;99.90;;;;;;5135062;27;20042;-86
2022/04/05 11:39:25;;;;;;;2.08;1.50;;;9.70;99.90;;;;;;5117594;27;20039;-85
2022/04/05 11:41:58;;;;;;;1.83;1.60;;;9.80;99.90;;;;;;5117385;27;20037;-86
2022/04/05 11:44:24;;;;;;;2.07;1.67;;;10.00;99.90;;;;;;5117447;27;20035;-86
2022/04/05 11:46:54;;;;;;;2.17;1.85;;;10.30;99.90;;;;;;5133985;27;20636;-85
2022/04/05 11:49:20;;;;;;;1.70;1.50;;;10.50;99.90;;;;;;5116374;27;20039;-86
2022/04/05 11:51:48;;;;;;;1.70;1.40;;;10.50;99.90;;;;;;5134798;27;20075;-86
2022/04/05 11:54:16;;;;;;;3.00;1.77;;;10.40;99.90;;;;;;5117004;27;20042;-86
2022/04/05 11:56:43;;;;;;;2.47;1.63;;;10.40;99.90;;;;;;5134920;27;20039;-87
2022/04/05 11:59:11;;;;;;;1.95;1.58;;;10.40;99.90;;;;;;5117631;27;20484;-86
2022/04/05 12:01:39;;;;;;;2.40;1.63;;;10.30;99.90;;;;;;5134846;27;20043;-85
2022/04/05 12:04:07;;;;;;;2.42;1.80;;;10.30;99.90;;;;;;5117388;27;20091;-85
2022/04/05 12:06:34;;;;;;;2.13;1.70;;;10.30;99.90;;;;;;5116631;27;20419;-86
2022/04/05 12:09:10;;;;;;;2.60;1.60;;;10.30;99.90;;;;;;5117199;27;20441;-86
2022/04/05 12:11:37;;;;;;;2.30;1.95;;;10.40;99.90;;;;;;5117401;27;20031;-87
2022/04/05 12:14:05;;;;;;;2.97;2.00;;;10.50;99.90;;;;;;5134172;27;20035;-85
2022/04/05 12:16:57;;;;;;;2.08;1.67;;;10.50;99.90;;;;;;5117377;27;20033;-86
2022/04/05 12:19:24;;;;;;;3.08;2.28;;;10.50;99.90;;;;;;5117067;27;20054;-86
2022/04/05 12:21:54;;;;;;;2.15;1.90;;;10.60;99.90;;;;;;5117363;27;20121;-87
2022/04/05 12:24:20;;;;;;;3.28;2.20;;;10.60;99.90;;;;;;5130958;27;20392;-86
2022/04/05 12:26:45;;;;;;;2.47;2.00;;;10.70;99.90;;;;;;5105114;27;20027;-87
2022/04/05 12:29:11;;;;;;;2.88;2.25;;;10.70;99.90;;;;;;5113445;28;20085;-86
2022/04/05 12:31:38;;;;;;;2.70;2.30;;;10.70;99.90;;;;;;5113846;28;20095;-87
2022/04/05 12:34:13;;;;;;;3.00;2.20;;;10.70;99.90;;;;;;5096554;28;20122;-87
2022/04/05 12:36:41;;;;;;;2.92;2.20;;;10.70;99.90;;;;;;5113730;28;20032;-86
2022/04/05 12:39:16;;;;;;;2.85;2.28;;;10.80;99.90;;;;;;5113668;28;20035;-86
2022/04/05 12:41:42;;;;;;;3.03;2.60;;;10.80;99.90;;;;;;5096834;28;20035;-87
2022/04/05 12:44:11;;;;;;;3.13;2.60;;;10.70;99.90;;;;;;5096783;28;20449;-87
2022/04/05 12:46:37;;;;;;;3.35;2.42;;;10.70;99.90;;;;;;5113524;28;20524;-86
2022/04/05 12:49:23;;;;;;;4.28;3.05;;;10.60;99.90;;;;;;5113685;28;20031;-87
2022/04/05 12:51:49;;;;;;;3.35;2.65;;;10.50;99.90;;;;;;5113862;28;20502;-86